createdAt,value
2019-05-10T00:03:07.017Z,94.09
2019-05-10T00:08:07.240Z,94.03
2019-05-10T00:13:07.773Z,93.8
2019-05-10T00:18:07.661Z,92.94
2019-05-10T00:23:07.862Z,92.56
2019-05-10T00:28:07.035Z,92.77
2019-05-10T00:33:07.213Z,93.02
2019-05-10T00:37:07.641Z,93.39
2019-05-10T00:42:07.474Z,94.19
2019-05-10T00:47:07.646Z,94.42
2019-05-10T00:52:07.861Z,93.87
2019-05-10T00:57:07.058Z,93.64
2019-05-10T01:02:09.309Z,92.97
2019-05-10T01:07:10.310Z,92.64
2019-05-10T01:11:08.879Z,92.58
2019-05-10T01:17:07.668Z,92.85
2019-05-10T01:21:07.049Z,92.67
2019-05-10T01:26:07.234Z,92.72
2019-05-10T01:31:07.504Z,92.87
2019-05-10T01:36:07.769Z,92.13
2019-05-10T01:41:07.200Z,91.26
2019-05-10T01:46:07.703Z,91.67
2019-05-10T01:50:07.394Z,92.98
2019-05-10T01:55:07.650Z,93.9
2019-05-10T02:00:09.259Z,94.61
2019-05-10T02:05:07.895Z,94.96
2019-05-10T02:10:07.784Z,95.67
2019-05-10T02:15:08.252Z,96.47
2019-05-10T02:20:07.327Z,98.19
2019-05-10T02:25:07.456Z,98.79
2019-05-10T02:29:07.546Z,98.85
2019-05-10T02:35:06.964Z,99.26
2019-05-10T02:39:07.664Z,98.4
2019-05-10T02:44:06.939Z,98.04
2019-05-10T02:49:07.806Z,97.79
2019-05-10T02:54:07.131Z,97.97
2019-05-10T02:59:07.358Z,98.29
2019-05-10T03:04:07.669Z,99.14
2019-05-10T03:09:07.474Z,99.68
2019-05-10T03:13:06.991Z,99.76
2019-05-10T03:18:07.347Z,99.72
2019-05-10T03:23:07.631Z,99.25
2019-05-10T03:28:06.891Z,99.24
2019-05-10T03:33:07.513Z,99.1
2019-05-10T03:38:07.767Z,99.79
2019-05-10T03:42:08.279Z,99.92
2019-05-10T03:43:07.253Z,99.92
2019-05-10T03:48:07.198Z,100
2019-05-10T03:52:07.782Z,100
2019-05-10T03:57:15.878Z,100
2019-05-10T04:02:07.602Z,100
2019-05-10T04:07:07.859Z,100
2019-05-10T04:12:07.640Z,100
2019-05-10T04:17:07.084Z,100
2019-05-10T04:21:08.001Z,100
2019-05-10T04:26:07.477Z,100
2019-05-10T04:31:07.679Z,100
2019-05-10T04:36:13.909Z,100
2019-05-10T04:41:08.249Z,100
2019-05-10T04:46:06.934Z,99.92
2019-05-10T04:51:07.199Z,99.22
2019-05-10T04:56:07.470Z,98.29
2019-05-10T05:00:09.266Z,98.08
2019-05-10T05:05:07.155Z,97.31
2019-05-10T05:10:07.971Z,96.86
2019-05-10T05:15:08.356Z,96.65
2019-05-10T05:20:07.460Z,96.56
2019-05-10T05:25:07.675Z,94.84
2019-05-10T05:30:07.947Z,94.4
2019-05-10T05:34:07.849Z,93.29
2019-05-10T05:39:07.465Z,92.3
2019-05-10T05:44:07.733Z,92.05
2019-05-10T05:49:07.719Z,90.9
2019-05-10T05:54:07.138Z,91.24
2019-05-10T05:59:09.952Z,89.51
2019-05-10T06:04:13.428Z,87.46
2019-05-10T06:08:25.657Z,85.58
2019-05-10T06:14:13.577Z,82.89
2019-05-10T06:18:12.786Z,81.78
2019-05-10T06:23:08.225Z,81.59
2019-05-10T06:28:59.384Z,80.49
2019-05-10T06:33:14.178Z,82.1
2019-05-10T06:38:07.359Z,83.08
2019-05-10T06:43:16.014Z,83.76
2019-05-10T06:47:11.930Z,83.75
2019-05-10T06:48:06.890Z,83.75
2019-05-10T06:52:07.313Z,84.56
2019-05-10T06:57:19.690Z,84.02
2019-05-10T07:02:07.422Z,85.55
2019-05-10T07:07:45.096Z,85.18
2019-05-10T07:12:18.748Z,85.45
2019-05-10T07:17:07.379Z,85.93
2019-05-10T07:21:09.764Z,86.94
2019-05-10T07:22:07.699Z,86.94
2019-05-10T07:26:10.936Z,87.01
2019-05-10T07:31:07.296Z,87.42
2019-05-10T07:36:30.774Z,88.85
2019-05-10T07:41:07.618Z,90.22
2019-05-10T07:46:10.036Z,91.84
2019-05-10T07:51:07.254Z,96.18
2019-05-10T07:55:11.571Z,100
2019-05-10T08:00:09.862Z,100
2019-05-10T08:05:18.273Z,100
2019-05-10T08:10:09.721Z,100
2019-05-10T08:15:09.684Z,100
2019-05-10T08:20:50.224Z,100
2019-05-10T08:25:07.640Z,100
2019-05-10T08:30:29.857Z,100
2019-05-10T08:34:07.514Z,100
2019-05-10T08:39:14.629Z,100
2019-05-10T08:44:24.360Z,100
2019-05-10T08:49:07.164Z,100
2019-05-10T08:54:07.422Z,99.89
2019-05-10T08:59:26.843Z,98.81
2019-05-10T09:04:14.326Z,94.77
2019-05-10T09:08:31.660Z,90.27
2019-05-10T09:09:09.459Z,90.27
2019-05-10T09:13:06.933Z,89.28
2019-05-10T09:18:08.669Z,85.59
2019-05-10T09:23:22.689Z,83.11
2019-05-10T09:28:17.577Z,85.85
2019-05-10T09:33:15.255Z,86.77
2019-05-10T09:38:07.471Z,85.21
2019-05-10T09:43:15.447Z,89.02
2019-05-10T09:47:07.762Z,88.51
2019-05-10T09:52:19.394Z,86.9
2019-05-10T09:57:09.326Z,80.21
2019-05-10T10:02:19.459Z,76.16
2019-05-10T10:07:07.586Z,79.38
2019-05-10T10:12:08.015Z,82.13
2019-05-10T10:16:15.652Z,82.02
2019-05-10T10:21:07.043Z,78.9
2019-05-10T10:26:21.858Z,78.26
2019-05-10T10:31:09.423Z,78.29
2019-05-10T10:36:11.340Z,76.33
2019-05-10T10:41:09.281Z,75.55
2019-05-10T10:46:15.315Z,74.65
2019-05-10T10:50:14.285Z,76.01
2019-05-10T10:55:14.243Z,74.01
2019-05-10T11:00:09.290Z,71.69
2019-05-10T11:05:07.014Z,72.38
2019-05-10T11:10:22.743Z,71.95
2019-05-10T11:15:28.301Z,68.5
2019-05-10T11:20:12.278Z,71.12
2019-05-10T11:24:23.179Z,70.16
2019-05-10T11:25:13.747Z,70.16
2019-05-10T11:29:07.047Z,68.73
2019-05-10T11:34:07.423Z,69.51
2019-05-10T11:39:27.553Z,68.72
2019-05-10T11:44:12.745Z,68.04
2019-05-10T11:49:07.764Z,68.09
2019-05-10T11:53:18.011Z,66.46
2019-05-10T11:59:06.823Z,66.22
2019-05-10T12:03:23.731Z,65.89
2019-05-10T12:08:06.985Z,65.54
2019-05-10T12:18:07.373Z,65.1
2019-05-10T12:22:08.266Z,67.51
2019-05-10T12:28:06.891Z,66.44
2019-05-10T12:32:07.311Z,64.84
2019-05-10T12:37:09.375Z,64.37
2019-05-10T12:42:06.027Z,63.43
2019-05-10T12:47:07.207Z,61.38
2019-05-10T12:52:09.038Z,63.47
2019-05-10T12:56:07.399Z,62.53
2019-05-10T13:01:06.327Z,61.97
2019-05-10T13:06:07.493Z,63.95
2019-05-10T13:11:07.177Z,66.51
2019-05-10T13:16:12.759Z,68.79
2019-05-10T13:26:07.605Z,64.26
2019-05-10T13:30:09.374Z,65.59
2019-05-10T13:31:08.475Z,65.59
2019-05-10T13:35:05.949Z,67.81
2019-05-10T13:40:09.386Z,68.21
2019-05-10T13:45:08.114Z,66.39
2019-05-10T13:50:07.809Z,63.92
2019-05-10T13:55:06.151Z,61.52
2019-05-10T14:00:09.593Z,59.65
2019-05-10T14:04:06.129Z,63.41
2019-05-10T14:09:07.542Z,65.99
2019-05-10T14:14:06.722Z,66.62
2019-05-10T14:19:07.017Z,67.72
2019-05-10T14:24:17.134Z,65.95
2019-05-10T14:29:06.326Z,65.97
2019-05-10T14:38:11.420Z,62.82
2019-05-10T14:43:07.078Z,63.99
2019-05-10T14:48:07.505Z,58.26
2019-05-10T14:53:07.738Z,62.36
2019-05-10T14:58:06.219Z,66.26
2019-05-10T15:03:07.673Z,65.47
2019-05-10T15:07:08.462Z,66.57
2019-05-10T15:08:07.008Z,66.57
2019-05-10T15:12:23.080Z,66.09
2019-05-10T15:17:06.322Z,65.74
2019-05-10T15:22:06.525Z,61.25
2019-05-10T15:27:07.804Z,58.73
2019-05-10T15:32:07.009Z,57.99
2019-05-10T15:37:11.416Z,59.93
2019-05-10T15:41:06.477Z,59.9
2019-05-10T15:46:07.448Z,58.91
2019-05-10T15:51:11.037Z,58.31
2019-05-10T15:56:07.330Z,63.04
2019-05-10T16:01:07.719Z,67.91
2019-05-10T16:06:06.564Z,64.28
2019-05-10T16:10:06.883Z,61.51
2019-05-10T16:15:13.510Z,63.47
2019-05-10T16:20:06.353Z,68.03
2019-05-10T16:25:07.494Z,69.67
2019-05-10T16:30:11.831Z,67.47
2019-05-10T16:35:15.312Z,69.07
2019-05-10T16:40:07.838Z,69.71
2019-05-10T16:44:06.673Z,69.66
2019-05-10T16:49:17.706Z,72.06
2019-05-10T16:54:09.453Z,73.05
2019-05-10T16:59:07.256Z,72.69
2019-05-10T17:04:06.443Z,68.58
2019-05-10T17:09:08.791Z,69.73
2019-05-10T17:14:06.471Z,71.95
2019-05-10T17:19:05.969Z,73.78
2019-05-10T17:23:12.062Z,74.75
2019-05-10T17:28:07.260Z,78.18
2019-05-10T17:33:10.410Z,80.05
2019-05-10T17:38:07.721Z,84.81
2019-05-10T17:43:07.494Z,92.29
2019-05-10T17:48:10.946Z,97.72
2019-05-10T17:52:07.228Z,99.84
2019-05-10T17:57:10.515Z,100
2019-05-10T18:02:06.128Z,100
2019-05-10T18:07:06.653Z,100
2019-05-10T18:12:06.455Z,100
2019-05-10T18:17:07.244Z,100
2019-05-10T18:21:07.186Z,100
2019-05-10T18:22:06.582Z,100
2019-05-10T18:26:07.291Z,100
2019-05-10T18:31:07.525Z,100
2019-05-10T18:36:10.591Z,100
2019-05-10T18:41:12.957Z,100
2019-05-10T18:46:07.972Z,100
2019-05-10T18:51:07.241Z,100
2019-05-10T18:55:08.233Z,100
2019-05-10T18:56:06.214Z,100
2019-05-10T19:00:09.941Z,100
2019-05-10T19:05:06.234Z,100
2019-05-10T19:10:07.189Z,100
2019-05-10T19:15:16.447Z,100
2019-05-10T19:20:18.851Z,100
2019-05-10T19:25:11.449Z,100
2019-05-10T19:29:07.015Z,100
2019-05-10T19:34:08.957Z,100
2019-05-10T19:39:07.277Z,100
2019-05-10T19:44:06.347Z,100
2019-05-10T19:49:12.376Z,100
2019-05-10T19:54:06.340Z,100
2019-05-10T19:59:11.447Z,100
2019-05-10T20:04:10.412Z,100
2019-05-10T20:09:08.049Z,100
2019-05-10T20:13:06.942Z,100
2019-05-10T20:18:06.508Z,100
2019-05-10T20:23:06.515Z,100
2019-05-10T20:28:06.779Z,100
2019-05-10T20:33:06.468Z,100
2019-05-10T20:38:06.638Z,100
2019-05-10T20:43:06.237Z,100
2019-05-10T20:47:07.736Z,100
2019-05-10T20:48:06.752Z,100
2019-05-10T20:52:07.879Z,100
2019-05-10T20:57:07.162Z,100
2019-05-10T21:02:06.047Z,100
2019-05-10T21:07:07.412Z,100
2019-05-10T21:12:06.554Z,100
2019-05-10T21:17:06.100Z,100
2019-05-10T21:22:06.309Z,100
2019-05-10T21:26:07.703Z,100
2019-05-10T21:31:07.060Z,100
2019-05-10T21:36:07.246Z,100
2019-05-10T21:41:07.779Z,100
2019-05-10T21:46:07.849Z,100
2019-05-10T21:51:07.166Z,100
2019-05-10T21:55:06.636Z,100
2019-05-10T21:56:07.557Z,100
2019-05-10T22:00:07.859Z,100
2019-05-10T22:05:07.808Z,100
2019-05-10T22:10:07.635Z,100
2019-05-10T22:15:09.129Z,100
2019-05-10T22:20:06.917Z,100
2019-05-10T22:25:07.058Z,100
2019-05-10T22:30:13.118Z,100
2019-05-10T22:34:06.809Z,100
2019-05-10T22:39:07.731Z,100
2019-05-10T22:44:06.159Z,100
2019-05-10T22:49:06.283Z,100
2019-05-10T22:54:06.397Z,100
2019-05-10T22:59:06.604Z,100
2019-05-10T23:03:07.353Z,100
2019-05-10T23:08:06.480Z,100
2019-05-10T23:13:06.055Z,100
2019-05-10T23:18:06.038Z,100
2019-05-10T23:23:06.218Z,100
2019-05-10T23:28:06.407Z,100
2019-05-10T23:33:06.470Z,100
2019-05-10T23:37:08.128Z,100
2019-05-10T23:38:06.148Z,100
2019-05-10T23:42:06.881Z,100
2019-05-10T23:47:06.891Z,100
2019-05-10T23:52:07.601Z,100
2019-05-10T23:57:06.981Z,100
